Time;durP1;ratioP1;P1;durP2;ratioP2;P2;SDS_P1;SDS_P2;PMS_P1;PMS_P2;Temp;Humidity;BMP_temperature;BMP_pressure;BME280_temperature;BME280_humidity;BME280_pressure;Samples;Min_cycle;Max_cycle;Signal;HPM_P1;HPM_P2
2023/05/14 00:01:27;;;;;;;9.32;7.78;;;11.30;99.90;;;;;;5000096;28;20058;-75
2023/05/14 00:03:53;;;;;;;9.70;8.30;;;11.30;99.90;;;;;;5000187;28;20090;-74
2023/05/14 00:06:19;;;;;;;11.10;9.02;;;11.30;99.90;;;;;;5000542;28;20094;-74
2023/05/14 00:08:45;;;;;;;12.02;9.43;;;11.20;99.90;;;;;;5020671;28;20030;-75
2023/05/14 00:11:10;;;;;;;12.30;9.70;;;11.10;99.90;;;;;;5020918;28;20026;-75
2023/05/14 00:13:36;;;;;;;10.27;8.50;;;11.10;99.90;;;;;;5021065;28;20046;-76
2023/05/14 00:16:02;;;;;;;10.68;7.60;;;11.10;99.90;;;;;;5021749;28;20029;-76
2023/05/14 00:18:28;;;;;;;9.88;7.93;;;11.10;99.90;;;;;;5021580;28;20501;-74
2023/05/14 00:20:54;;;;;;;9.45;7.65;;;11.00;99.90;;;;;;5020835;28;20022;-75
2023/05/14 00:23:23;;;;;;;11.32;8.82;;;11.10;99.90;;;;;;5021516;28;20051;-75
2023/05/14 00:25:49;;;;;;;10.55;8.43;;;11.00;99.90;;;;;;5023225;28;20141;-75
2023/05/14 00:28:15;;;;;;;12.45;9.27;;;11.00;99.90;;;;;;5006686;28;20018;-75
2023/05/14 00:30:41;;;;;;;9.60;7.95;;;11.00;99.90;;;;;;5003218;28;20022;-74
2023/05/14 00:33:07;;;;;;;9.52;7.68;;;11.00;99.90;;;;;;5002624;28;20161;-75
2023/05/14 00:35:35;;;;;;;11.73;7.80;;;11.00;99.90;;;;;;4999814;28;20490;-75
2023/05/14 00:38:02;;;;;;;8.27;6.75;;;11.00;99.90;;;;;;5005701;28;20021;-75
2023/05/14 00:40:28;;;;;;;6.38;5.53;;;11.10;99.90;;;;;;5018952;28;20026;-75
2023/05/14 00:42:54;;;;;;;6.88;5.93;;;11.10;99.90;;;;;;5019084;28;20034;-75
2023/05/14 00:45:20;;;;;;;13.00;9.90;;;11.10;99.90;;;;;;5018308;28;20072;-75
2023/05/14 00:47:47;;;;;;;11.63;8.38;;;11.10;99.90;;;;;;5018189;28;20478;-75
2023/05/14 00:50:15;;;;;;;10.77;8.63;;;11.00;99.90;;;;;;5018315;28;20029;-75
2023/05/14 00:52:41;;;;;;;12.20;9.02;;;11.00;99.90;;;;;;5017022;28;20517;-74
2023/05/14 00:55:07;;;;;;;11.55;8.55;;;11.00;99.90;;;;;;5015765;28;20076;-75
2023/05/14 00:57:35;;;;;;;10.05;7.75;;;11.00;99.90;;;;;;5004121;28;20030;-75
2023/05/14 01:00:02;;;;;;;10.18;8.55;;;11.00;99.90;;;;;;4986178;28;20026;-74
2023/05/14 01:02:28;;;;;;;10.10;8.45;;;11.00;99.90;;;;;;4979145;28;20034;-74
2023/05/14 01:04:54;;;;;;;10.93;8.02;;;10.90;99.90;;;;;;4978542;28;20023;-75
2023/05/14 01:07:19;;;;;;;13.55;10.23;;;10.90;99.90;;;;;;4978434;28;20388;-74
2023/05/14 01:10:01;;;;;;;12.18;9.73;;;10.90;99.90;;;;;;4978246;28;20034;-74
2023/05/14 01:12:52;;;;;;;12.55;8.68;;;10.90;99.90;;;;;;5017499;28;20051;-75
2023/05/14 01:15:25;;;;;;;9.55;7.90;;;10.90;99.90;;;;;;5017584;28;20030;-74
2023/05/14 01:17:58;;;;;;;8.88;6.90;;;10.80;99.90;;;;;;5017477;28;20074;-75
2023/05/14 01:20:25;;;;;;;9.95;7.13;;;10.80;99.90;;;;;;5017673;28;20022;-76
2023/05/14 01:22:51;;;;;;;9.82;7.53;;;10.80;99.90;;;;;;5017566;28;20025;-75
2023/05/14 01:25:17;;;;;;;10.80;8.38;;;10.80;99.90;;;;;;5016855;28;20053;-75
2023/05/14 01:27:56;;;;;;;12.82;8.88;;;10.80;99.90;;;;;;5003305;28;20050;-74
2023/05/14 01:30:35;;;;;;;10.48;9.07;;;10.80;99.90;;;;;;5009583;28;20490;-75
2023/05/14 01:33:06;;;;;;;12.00;9.45;;;10.80;99.90;;;;;;5018015;28;20061;-74
2023/05/14 01:35:32;;;;;;;12.23;9.35;;;10.70;99.90;;;;;;5016863;28;20028;-74
2023/05/14 01:38:02;;;;;;;13.85;9.05;;;10.70;99.90;;;;;;5017801;28;20356;-76
2023/05/14 01:40:29;;;;;;;13.85;10.85;;;10.70;99.90;;;;;;5017720;28;20103;-75
2023/05/14 01:42:55;;;;;;;12.95;9.75;;;10.60;99.90;;;;;;5016808;28;20025;-75
2023/05/14 01:45:22;;;;;;;12.20;9.23;;;10.60;99.90;;;;;;5013364;28;20026;-73
2023/05/14 01:47:48;;;;;;;12.40;8.60;;;10.60;99.90;;;;;;5016899;28;20022;-74
2023/05/14 01:50:13;;;;;;;11.73;9.20;;;10.60;99.90;;;;;;5016077;28;20028;-75
2023/05/14 01:52:39;;;;;;;11.13;9.23;;;10.60;99.90;;;;;;5017255;28;20030;-74
2023/05/14 01:55:05;;;;;;;10.45;8.52;;;10.60;99.90;;;;;;5016876;28;20542;-74
2023/05/14 01:57:31;;;;;;;13.13;10.27;;;10.50;99.90;;;;;;4996803;28;20088;-75
2023/05/14 01:59:57;;;;;;;11.43;9.02;;;10.50;99.90;;;;;;5007085;28;20453;-75
2023/05/14 02:02:23;;;;;;;11.68;8.70;;;10.50;99.90;;;;;;5018811;28;20037;-74
2023/05/14 02:04:49;;;;;;;11.23;8.70;;;10.50;99.90;;;;;;5015632;28;20036;-75
2023/05/14 02:07:14;;;;;;;10.93;7.97;;;10.50;99.90;;;;;;5017559;28;20077;-75
2023/05/14 02:09:40;;;;;;;12.88;9.85;;;10.50;99.90;;;;;;5017185;28;20050;-76
2023/05/14 02:12:07;;;;;;;14.90;9.68;;;10.40;99.90;;;;;;5015888;28;20038;-75
2023/05/14 02:14:33;;;;;;;13.75;10.45;;;10.40;99.90;;;;;;5000506;28;20027;-76
2023/05/14 02:16:59;;;;;;;14.30;10.52;;;10.40;99.90;;;;;;4997005;28;20109;-75
2023/05/14 02:19:24;;;;;;;12.10;9.93;;;10.40;99.90;;;;;;4995158;28;20092;-75
2023/05/14 02:21:50;;;;;;;11.68;9.38;;;10.40;99.90;;;;;;4994840;28;20025;-75
2023/05/14 02:24:16;;;;;;;12.43;9.20;;;10.40;99.90;;;;;;4995948;28;20030;-76
2023/05/14 02:26:42;;;;;;;12.75;9.40;;;10.40;99.90;;;;;;4996768;28;20015;-75
2023/05/14 02:29:07;;;;;;;13.60;8.90;;;10.40;99.90;;;;;;4996189;28;20030;-75
2023/05/14 02:31:33;;;;;;;15.77;10.60;;;10.40;99.90;;;;;;4996678;28;20380;-76
2023/05/14 02:34:00;;;;;;;19.10;11.52;;;10.40;99.90;;;;;;4996115;28;20105;-75
2023/05/14 02:36:26;;;;;;;17.95;12.18;;;10.50;99.90;;;;;;4994930;28;20323;-75
2023/05/14 02:38:52;;;;;;;24.13;14.88;;;10.40;99.90;;;;;;4989077;28;20034;-76
2023/05/14 02:41:18;;;;;;;22.00;14.32;;;10.40;99.90;;;;;;4995166;28;20034;-74
2023/05/14 02:43:43;;;;;;;21.33;15.65;;;10.40;99.90;;;;;;4991014;28;20041;-75
2023/05/14 02:46:09;;;;;;;23.30;14.68;;;10.30;99.90;;;;;;4995955;28;20057;-75
2023/05/14 02:48:34;;;;;;;19.77;13.32;;;10.30;99.90;;;;;;4995265;28;20460;-75
2023/05/14 02:51:01;;;;;;;15.07;10.80;;;10.30;99.90;;;;;;4996598;28;20081;-75
2023/05/14 02:53:26;;;;;;;17.40;13.05;;;10.30;99.90;;;;;;4994662;28;20030;-75
2023/05/14 02:55:52;;;;;;;17.25;12.52;;;10.40;99.90;;;;;;4995418;28;20487;-75
2023/05/14 02:58:18;;;;;;;21.75;14.30;;;10.40;99.90;;;;;;4996680;28;20208;-75
2023/05/14 03:00:43;;;;;;;18.02;13.95;;;10.30;99.90;;;;;;4996664;28;20102;-75
2023/05/14 03:03:09;;;;;;;16.60;12.82;;;10.30;99.90;;;;;;5010215;28;20033;-75
2023/05/14 03:05:35;;;;;;;16.05;11.25;;;10.30;99.90;;;;;;5007030;28;20022;-75
2023/05/14 03:08:00;;;;;;;15.57;10.65;;;10.20;99.90;;;;;;4998178;28;20026;-74
2023/05/14 03:10:26;;;;;;;14.32;10.45;;;10.20;99.90;;;;;;4997474;28;20483;-75
2023/05/14 03:12:52;;;;;;;13.93;10.27;;;10.20;99.90;;;;;;4996405;28;20157;-75
2023/05/14 03:15:18;;;;;;;13.02;9.50;;;10.20;99.90;;;;;;4995813;28;20023;-75
2023/05/14 03:17:43;;;;;;;13.82;10.13;;;10.20;99.90;;;;;;4997211;28;20057;-75
2023/05/14 03:20:10;;;;;;;16.70;11.65;;;10.20;99.90;;;;;;5014980;28;20030;-75
2023/05/14 03:22:35;;;;;;;15.95;13.00;;;10.20;99.90;;;;;;5016273;28;20038;-75
2023/05/14 03:25:01;;;;;;;16.35;11.35;;;10.20;99.90;;;;;;5015590;28;20062;-74
2023/05/14 03:27:27;;;;;;;13.95;10.30;;;10.20;99.90;;;;;;5004595;28;20026;-75
2023/05/14 03:29:52;;;;;;;16.92;12.07;;;10.20;99.90;;;;;;4986309;28;20030;-76
2023/05/14 03:32:20;;;;;;;17.35;12.90;;;10.20;99.90;;;;;;4978748;28;20046;-74
2023/05/14 03:34:46;;;;;;;16.73;11.55;;;10.20;99.90;;;;;;4992603;28;20018;-75
2023/05/14 03:37:12;;;;;;;12.77;9.77;;;10.20;99.90;;;;;;5006644;28;20084;-75
2023/05/14 03:39:37;;;;;;;11.52;8.48;;;10.10;99.90;;;;;;4998611;28;20056;-74
2023/05/14 03:42:03;;;;;;;13.52;9.88;;;10.20;99.90;;;;;;4997457;28;20026;-76
2023/05/14 03:44:29;;;;;;;18.80;11.38;;;10.10;99.90;;;;;;4999882;28;20042;-76
2023/05/14 03:46:57;;;;;;;14.45;10.23;;;10.10;99.90;;;;;;5000354;28;20046;-76
2023/05/14 03:49:23;;;;;;;16.55;10.38;;;10.10;99.90;;;;;;5002174;28;20034;-76
2023/05/14 03:51:49;;;;;;;14.02;9.43;;;10.10;99.90;;;;;;5014780;28;20072;-75
2023/05/14 03:54:17;;;;;;;14.82;10.38;;;10.10;99.90;;;;;;5024724;28;20034;-75
2023/05/14 03:56:43;;;;;;;19.33;11.15;;;10.20;99.90;;;;;;5015794;28;20018;-76
2023/05/14 03:59:08;;;;;;;16.90;11.65;;;10.10;99.90;;;;;;4995709;28;20364;-75
2023/05/14 04:01:34;;;;;;;13.25;9.43;;;10.10;99.90;;;;;;4981319;28;20026;-76
2023/05/14 04:04:00;;;;;;;12.25;9.13;;;10.10;99.90;;;;;;4981641;28;20026;-76
2023/05/14 04:06:28;;;;;;;10.48;7.57;;;10.20;99.90;;;;;;4982400;28;20023;-76
2023/05/14 04:08:56;;;;;;;10.10;7.57;;;10.20;99.90;;;;;;5005472;28;20026;-76
2023/05/14 04:11:22;;;;;;;17.63;12.68;;;10.30;99.90;;;;;;5020660;28;20113;-76
2023/05/14 04:13:47;;;;;;;20.77;13.65;;;10.30;99.90;;;;;;5019744;28;20057;-75
2023/05/14 04:16:13;;;;;;;18.30;12.80;;;10.20;99.90;;;;;;5020088;28;20106;-75
2023/05/14 04:18:39;;;;;;;16.92;12.43;;;10.20;99.90;;;;;;5020068;28;20030;-76
2023/05/14 04:21:05;;;;;;;17.88;12.90;;;10.10;99.90;;;;;;5019440;28;20028;-75
2023/05/14 04:23:31;;;;;;;19.77;12.07;;;10.10;99.90;;;;;;5016331;28;20451;-75
2023/05/14 04:25:57;;;;;;;18.73;12.68;;;10.20;99.90;;;;;;5013168;28;20085;-75
2023/05/14 04:28:23;;;;;;;19.10;14.48;;;10.20;99.90;;;;;;4997181;28;20019;-75
2023/05/14 04:30:48;;;;;;;24.27;15.38;;;10.20;99.90;;;;;;4996084;28;20360;-75
2023/05/14 04:33:14;;;;;;;23.95;14.93;;;10.10;99.90;;;;;;4998024;28;20037;-75
2023/05/14 04:35:40;;;;;;;23.38;14.60;;;10.10;99.90;;;;;;4980501;28;20030;-75
2023/05/14 04:38:06;;;;;;;25.17;16.50;;;10.10;99.90;;;;;;4977937;28;20679;-76
2023/05/14 04:40:31;;;;;;;19.35;14.30;;;10.10;99.90;;;;;;4984746;28;20498;-74
2023/05/14 04:42:57;;;;;;;19.95;13.55;;;10.10;99.90;;;;;;4995877;28;20038;-74
2023/05/14 04:45:23;;;;;;;19.10;13.32;;;10.00;99.90;;;;;;4996822;28;20375;-74
2023/05/14 04:47:49;;;;;;;20.63;13.73;;;10.10;99.90;;;;;;4996547;28;20058;-75
2023/05/14 04:50:15;;;;;;;18.02;11.70;;;10.10;99.90;;;;;;4998120;28;20089;-75
2023/05/14 04:52:40;;;;;;;16.88;12.13;;;10.10;99.90;;;;;;4998257;28;20105;-75
2023/05/14 04:55:07;;;;;;;23.35;15.23;;;10.20;99.90;;;;;;4999980;28;20049;-75
2023/05/14 04:57:32;;;;;;;23.27;15.52;;;10.20;99.90;;;;;;4999878;28;20041;-75
2023/05/14 04:59:58;;;;;;;21.48;14.63;;;10.10;99.90;;;;;;5002557;28;20038;-74
2023/05/14 05:02:24;;;;;;;21.83;14.32;;;10.20;99.90;;;;;;4998990;28;20037;-75
2023/05/14 05:04:49;;;;;;;20.80;14.30;;;10.10;99.90;;;;;;4998393;28;20130;-76
2023/05/14 05:07:15;;;;;;;22.88;12.80;;;10.10;99.90;;;;;;5001016;28;20134;-75
2023/05/14 05:09:42;;;;;;;17.35;11.40;;;10.10;99.90;;;;;;4998494;28;20106;-73
2023/05/14 05:12:08;;;;;;;14.98;10.45;;;10.20;99.90;;;;;;4997551;28;20452;-75
2023/05/14 05:14:34;;;;;;;14.45;10.07;;;10.30;99.90;;;;;;5001668;28;20022;-75
2023/05/14 05:16:59;;;;;;;13.27;9.65;;;10.20;99.90;;;;;;5016622;28;20022;-75
2023/05/14 05:19:25;;;;;;;14.80;9.45;;;10.30;99.90;;;;;;5015724;28;20022;-75
2023/05/14 05:21:51;;;;;;;16.30;10.82;;;10.30;99.90;;;;;;5017078;28;20118;-76
2023/05/14 05:24:16;;;;;;;16.83;10.82;;;10.30;99.90;;;;;;5016393;28;20483;-74
2023/05/14 05:26:42;;;;;;;15.70;10.95;;;10.30;99.90;;;;;;5014574;28;20025;-75
2023/05/14 05:29:08;;;;;;;15.30;9.98;;;10.30;99.90;;;;;;4988888;28;20034;-74
2023/05/14 05:31:33;;;;;;;13.15;9.65;;;10.40;99.90;;;;;;4998084;28;20120;-75
2023/05/14 05:34:00;;;;;;;11.70;8.30;;;10.50;99.90;;;;;;4995496;28;20063;-74
2023/05/14 05:36:26;;;;;;;14.05;9.30;;;10.50;99.90;;;;;;4975998;28;20050;-75
2023/05/14 05:38:51;;;;;;;15.05;10.00;;;10.60;99.90;;;;;;4975642;28;20456;-74
2023/05/14 05:41:17;;;;;;;13.52;9.27;;;10.60;99.90;;;;;;4976712;28;20051;-74
2023/05/14 05:43:43;;;;;;;14.35;9.77;;;10.60;99.90;;;;;;4977604;28;20034;-74
2023/05/14 05:46:09;;;;;;;21.13;11.77;;;10.60;99.90;;;;;;4975003;28;20574;-74
2023/05/14 05:48:35;;;;;;;20.50;13.98;;;10.60;99.90;;;;;;4976027;28;20022;-74
2023/05/14 05:51:01;;;;;;;18.55;12.25;;;10.60;99.90;;;;;;4977728;28;20443;-75
2023/05/14 05:53:26;;;;;;;21.20;13.93;;;10.60;99.90;;;;;;4976926;28;20035;-76
2023/05/14 05:55:52;;;;;;;21.40;14.00;;;10.60;99.90;;;;;;4982921;28;20030;-74
2023/05/14 05:58:18;;;;;;;22.05;13.95;;;10.60;99.90;;;;;;4994796;28;20026;-75
2023/05/14 06:00:45;;;;;;;17.67;11.10;;;10.60;99.90;;;;;;4992227;28;20038;-75
2023/05/14 06:03:12;;;;;;;16.60;11.77;;;10.70;99.90;;;;;;4989189;28;20038;-74
2023/05/14 06:05:38;;;;;;;18.52;12.93;;;10.70;99.90;;;;;;4999448;28;20030;-74
2023/05/14 06:08:04;;;;;;;21.92;14.45;;;10.70;99.90;;;;;;5000599;28;20388;-73
2023/05/14 06:10:33;;;;;;;20.23;12.95;;;10.70;99.90;;;;;;4998190;28;20037;-74
2023/05/14 06:12:59;;;;;;;24.63;14.38;;;10.60;99.90;;;;;;4989274;28;20046;-73
2023/05/14 06:15:25;;;;;;;19.30;12.45;;;10.60;99.90;;;;;;4981928;28;20031;-74
2023/05/14 06:17:51;;;;;;;16.60;10.95;;;10.70;99.90;;;;;;4982055;28;20515;-75
2023/05/14 06:20:16;;;;;;;15.57;10.52;;;10.80;99.90;;;;;;4986493;28;20732;-74
2023/05/14 06:22:42;;;;;;;15.57;10.10;;;10.80;99.90;;;;;;5000136;28;20030;-75
2023/05/14 06:25:09;;;;;;;12.32;9.48;;;11.00;99.90;;;;;;4999868;28;20022;-74
2023/05/14 06:27:35;;;;;;;15.40;11.40;;;11.10;99.90;;;;;;5000470;28;20042;-75
2023/05/14 06:30:00;;;;;;;18.73;11.48;;;11.10;99.90;;;;;;4998803;28;20015;-74
2023/05/14 06:32:26;;;;;;;15.98;11.02;;;11.10;99.90;;;;;;5001343;28;20030;-74
2023/05/14 06:34:52;;;;;;;18.25;11.13;;;11.00;99.90;;;;;;5001519;28;20027;-75
2023/05/14 06:37:18;;;;;;;20.73;13.90;;;11.10;99.90;;;;;;4984283;28;20046;-75
2023/05/14 06:39:49;;;;;;;17.23;11.63;;;11.10;99.90;;;;;;4994094;28;20026;-75
2023/05/14 06:42:17;;;;;;;19.17;12.43;;;11.10;99.90;;;;;;5002804;28;20097;-73
2023/05/14 06:44:44;;;;;;;14.60;9.45;;;11.10;99.90;;;;;;4995377;28;20096;-75
2023/05/14 06:47:10;;;;;;;12.50;9.05;;;;;;;;;;4996061;28;20499;-74
2023/05/14 06:49:36;;;;;;;12.48;7.95;;;11.30;99.90;;;;;;4996656;28;20031;-75
2023/05/14 06:52:02;;;;;;;13.57;9.75;;;11.40;99.90;;;;;;4996765;28;20097;-73
2023/05/14 06:54:28;;;;;;;14.88;9.85;;;11.40;99.90;;;;;;5004223;28;20022;-74
2023/05/14 06:56:54;;;;;;;11.52;8.40;;;11.40;99.90;;;;;;4995995;28;20084;-73
2023/05/14 06:59:20;;;;;;;14.70;10.63;;;11.50;99.90;;;;;;4986056;28;20023;-75
2023/05/14 07:01:45;;;;;;;13.32;9.48;;;11.50;99.90;;;;;;4996699;28;20057;-75
2023/05/14 07:04:11;;;;;;;10.57;7.82;;;11.40;99.90;;;;;;4995925;28;20030;-73
2023/05/14 07:06:37;;;;;;;9.10;7.07;;;11.50;99.90;;;;;;4998295;28;20034;-74
2023/05/14 07:09:02;;;;;;;7.40;6.00;;;11.60;99.90;;;;;;4999534;28;20033;-74
2023/05/14 07:11:28;;;;;;;12.30;9.48;;;11.70;99.90;;;;;;4999570;28;20022;-74
2023/05/14 07:13:54;;;;;;;16.15;10.15;;;11.60;99.90;;;;;;4999287;28;20041;-73
2023/05/14 07:16:20;;;;;;;14.38;9.82;;;11.60;99.90;;;;;;4999620;28;20030;-74
2023/05/14 07:18:45;;;;;;;13.02;8.85;;;11.60;99.90;;;;;;4998506;28;20034;-74
2023/05/14 07:21:11;;;;;;;15.27;9.10;;;11.50;99.90;;;;;;4999851;28;20030;-74
2023/05/14 07:23:37;;;;;;;10.85;8.63;;;11.60;99.90;;;;;;4999184;28;20774;-74
2023/05/14 07:26:06;;;;;;;12.43;8.98;;;11.50;99.90;;;;;;4999857;28;20121;-73
2023/05/14 07:28:32;;;;;;;11.90;8.65;;;11.50;99.90;;;;;;5001327;28;20063;-74
2023/05/14 07:30:58;;;;;;;15.45;11.75;;;11.50;99.90;;;;;;5009446;28;20079;-73
2023/05/14 07:33:24;;;;;;;14.98;11.07;;;11.40;99.90;;;;;;5021198;28;20058;-74
2023/05/14 07:35:50;;;;;;;16.40;11.63;;;11.40;99.90;;;;;;5019874;28;20026;-73
2023/05/14 07:38:16;;;;;;;14.90;11.05;;;11.30;99.90;;;;;;5017175;28;20037;-74
2023/05/14 07:40:42;;;;;;;17.13;12.27;;;11.30;99.90;;;;;;5001580;28;20543;-74
2023/05/14 07:43:08;;;;;;;14.85;10.35;;;11.40;99.90;;;;;;5000619;28;20121;-74
2023/05/14 07:45:36;;;;;;;12.30;9.45;;;11.40;99.90;;;;;;4999910;28;20022;-73
2023/05/14 07:48:01;;;;;;;13.95;9.40;;;11.40;99.90;;;;;;5000635;28;20091;-74
2023/05/14 07:50:27;;;;;;;10.65;8.25;;;11.40;99.90;;;;;;5001323;28;20165;-73
2023/05/14 07:52:53;;;;;;;9.45;7.65;;;11.50;99.90;;;;;;5011985;28;20026;-72
2023/05/14 07:55:19;;;;;;;8.48;6.72;;;11.50;99.90;;;;;;5014290;28;20068;-74
2023/05/14 07:57:44;;;;;;;10.93;8.43;;;11.70;99.90;;;;;;5007271;28;20398;-75
2023/05/14 08:00:11;;;;;;;13.20;9.07;;;11.70;99.90;;;;;;4988128;28;20035;-73
2023/05/14 08:02:36;;;;;;;11.93;9.00;;;11.80;99.90;;;;;;4979574;28;20078;-73
2023/05/14 08:05:03;;;;;;;14.00;10.23;;;11.90;99.90;;;;;;4980364;28;20361;-75
2023/05/14 08:07:29;;;;;;;13.88;9.73;;;12.00;99.90;;;;;;4981102;28;20503;-74
2023/05/14 08:09:55;;;;;;;12.70;9.02;;;12.30;99.90;;;;;;4979860;28;20031;-74
2023/05/14 08:12:21;;;;;;;13.65;9.52;;;12.60;99.90;;;;;;5000439;28;20117;-73
2023/05/14 08:14:46;;;;;;;10.85;8.38;;;12.90;99.90;;;;;;5000957;28;20061;-73
2023/05/14 08:17:12;;;;;;;10.70;8.43;;;13.10;99.90;;;;;;4999218;28;20024;-73
2023/05/14 08:19:38;;;;;;;10.52;7.50;;;13.00;99.90;;;;;;5000441;28;20615;-74
2023/05/14 08:22:04;;;;;;;15.07;8.75;;;13.00;99.90;;;;;;5000567;28;20480;-73
2023/05/14 08:24:30;;;;;;;10.93;7.88;;;12.80;99.90;;;;;;5006642;28;20082;-73
2023/05/14 08:26:56;;;;;;;7.63;5.78;;;12.80;99.90;;;;;;5004317;28;20104;-74
2023/05/14 08:29:21;;;;;;;7.57;6.28;;;12.90;99.90;;;;;;4998373;28;20045;-74
2023/05/14 08:31:50;;;;;;;5.93;4.82;;;13.00;99.90;;;;;;4980794;28;20027;-75
2023/05/14 08:34:16;;;;;;;6.95;5.93;;;13.10;99.90;;;;;;4980397;28;20030;-74
2023/05/14 08:36:41;;;;;;;11.02;7.20;;;13.00;99.90;;;;;;4980471;28;20094;-72
2023/05/14 08:39:07;;;;;;;8.98;6.93;;;12.70;99.90;;;;;;4980124;28;20035;-73
2023/05/14 08:41:33;;;;;;;9.05;6.47;;;12.50;99.90;;;;;;4978335;28;20031;-74
2023/05/14 08:44:10;;;;;;;11.05;8.30;;;12.40;99.90;;;;;;4987528;28;20120;-74
2023/05/14 08:46:37;;;;;;;10.88;7.68;;;12.20;99.90;;;;;;5010948;28;20028;-73
2023/05/14 08:49:16;;;;;;;7.80;6.07;;;12.20;99.90;;;;;;4998895;28;20042;-74
2023/05/14 08:51:48;;;;;;;6.90;5.15;;;12.20;99.90;;;;;;4999590;28;20029;-74
2023/05/14 08:54:17;;;;;;;7.43;6.17;;;12.20;99.90;;;;;;4996743;28;20030;-72
2023/05/14 08:56:46;;;;;;;7.47;6.13;;;12.20;99.90;;;;;;4997947;28;20054;-73
2023/05/14 08:59:12;;;;;;;10.98;8.18;;;12.20;99.90;;;;;;4996526;28;20121;-73
2023/05/14 09:01:41;;;;;;;12.10;8.45;;;12.20;99.90;;;;;;4999418;28;20445;-74
2023/05/14 09:04:08;;;;;;;13.27;9.80;;;12.10;99.90;;;;;;4997721;28;20037;-72
2023/05/14 09:06:38;;;;;;;13.13;8.60;;;12.00;99.90;;;;;;4998255;28;20023;-74
2023/05/14 09:09:04;;;;;;;9.50;7.68;;;12.00;99.90;;;;;;4997928;28;20030;-74
2023/05/14 09:11:30;;;;;;;9.85;7.00;;;11.90;99.90;;;;;;4998385;28;20050;-72
2023/05/14 09:13:56;;;;;;;14.20;9.05;;;12.00;99.90;;;;;;4996713;28;20045;-73
2023/05/14 09:16:24;;;;;;;11.90;7.53;;;12.00;99.90;;;;;;4996814;28;20476;-74
2023/05/14 09:18:50;;;;;;;12.15;8.73;;;12.00;99.90;;;;;;4998360;28;20030;-74
2023/05/14 09:21:17;;;;;;;15.07;9.68;;;12.00;99.90;;;;;;4997544;28;20372;-74
2023/05/14 09:23:44;;;;;;;12.68;9.00;;;12.10;99.90;;;;;;4997600;28;20393;-74
2023/05/14 09:26:10;;;;;;;9.38;6.93;;;12.30;99.90;;;;;;4995563;28;20460;-74
2023/05/14 09:28:43;;;;;;;8.57;6.88;;;12.50;99.90;;;;;;4996156;28;20026;-75
2023/05/14 09:31:08;;;;;;;;;;;12.50;99.90;;;;;;4993738;28;20038;-73
2023/05/14 09:33:34;;;;;;;10.10;7.90;;;12.50;99.90;;;;;;4993677;28;20426;-74
2023/05/14 09:36:01;;;;;;;12.13;8.20;;;12.40;99.90;;;;;;5004298;28;20399;-73
2023/05/14 09:38:30;;;;;;;10.40;6.65;;;12.30;99.90;;;;;;4997018;28;20037;-74
2023/05/14 09:40:59;;;;;;;7.97;6.07;;;12.40;99.90;;;;;;4998010;28;20468;-74
2023/05/14 09:43:25;;;;;;;7.25;5.95;;;12.40;99.90;;;;;;4996802;28;20030;-74
2023/05/14 09:45:54;;;;;;;6.43;5.20;;;12.60;99.90;;;;;;4995638;28;20022;-74
2023/05/14 09:48:21;;;;;;;9.27;7.35;;;12.70;99.90;;;;;;4996223;28;20029;-75
2023/05/14 09:50:46;;;;;;;6.90;5.80;;;12.80;99.90;;;;;;5005360;28;20036;-74
2023/05/14 09:53:13;;;;;;;6.05;5.25;;;12.90;99.90;;;;;;5014428;28;20120;-74
2023/05/14 09:55:39;;;;;;;8.63;5.88;;;12.90;99.90;;;;;;5014501;28;20117;-74
2023/05/14 09:58:05;;;;;;;7.07;5.45;;;12.80;99.90;;;;;;5001996;28;20026;-74
2023/05/14 10:00:32;;;;;;;6.25;5.57;;;12.80;99.90;;;;;;4997216;28;20125;-74
2023/05/14 10:02:58;;;;;;;5.85;5.25;;;12.80;99.90;;;;;;4996141;28;20026;-73
2023/05/14 10:05:25;;;;;;;7.30;5.90;;;12.80;99.90;;;;;;4995611;28;20113;-73
2023/05/14 10:07:53;;;;;;;7.43;5.65;;;12.70;99.90;;;;;;4996843;28;20022;-74
2023/05/14 10:10:20;;;;;;;7.47;5.95;;;12.70;99.90;;;;;;4996723;28;20034;-74
2023/05/14 10:13:13;;;;;;;6.05;5.45;;;12.70;99.90;;;;;;4995959;28;20376;-74
2023/05/14 10:15:48;;;;;;;6.80;5.72;;;12.70;99.80;;;;;;4995688;28;20088;-74
2023/05/14 10:18:21;;;;;;;6.78;5.50;;;12.60;99.60;;;;;;4996020;28;20145;-74
2023/05/14 10:21:03;;;;;;;5.07;4.57;;;12.50;99.80;;;;;;4995100;28;20153;-75
2023/05/14 10:23:29;;;;;;;8.77;6.88;;;12.50;99.90;;;;;;4997186;28;20030;-74
2023/05/14 10:25:56;;;;;;;11.43;6.97;;;12.50;99.90;;;;;;4993840;28;20023;-74
2023/05/14 10:28:22;;;;;;;8.77;6.05;;;12.40;99.90;;;;;;4999736;28;20105;-74
2023/05/14 10:30:49;;;;;;;7.40;5.68;;;12.40;99.90;;;;;;4978585;28;20023;-73
2023/05/14 10:33:17;;;;;;;6.03;5.28;;;12.30;99.90;;;;;;4976965;28;20037;-73
2023/05/14 10:36:02;;;;;;;7.07;5.57;;;12.30;99.90;;;;;;4977404;28;20023;-74
2023/05/14 10:38:32;;;;;;;6.07;4.88;;;12.40;99.90;;;;;;4975472;28;20035;-74
2023/05/14 10:41:09;;;;;;;4.60;4.18;;;12.40;99.90;;;;;;4986159;28;20034;-75
2023/05/14 10:43:40;;;;;;;6.28;4.47;;;12.50;99.90;;;;;;5000076;28;20053;-74
2023/05/14 10:46:07;;;;;;;6.30;5.15;;;12.50;99.90;;;;;;4999000;28;20033;-74
2023/05/14 10:48:36;;;;;;;5.82;4.63;;;12.60;99.90;;;;;;4995873;28;20022;-73
2023/05/14 10:51:02;;;;;;;5.93;5.05;;;12.60;99.90;;;;;;4993613;28;20446;-75
2023/05/14 10:53:33;;;;;;;7.07;5.35;;;12.60;99.90;;;;;;4997638;28;20109;-75
2023/05/14 10:56:12;;;;;;;6.07;5.32;;;12.60;99.90;;;;;;4996725;28;20430;-74
2023/05/14 10:58:42;;;;;;;5.00;4.50;;;12.60;99.90;;;;;;4998203;28;20121;-75
2023/05/14 11:01:10;;;;;;;5.18;4.60;;;12.70;99.80;;;;;;4978365;28;20457;-75
2023/05/14 11:03:44;;;;;;;6.18;4.97;;;12.70;99.70;;;;;;4977819;28;20030;-76
2023/05/14 11:06:11;;;;;;;5.05;4.53;;;12.70;99.30;;;;;;4977508;28;20118;-74
2023/05/14 11:08:38;;;;;;;5.45;4.47;;;12.70;99.40;;;;;;4977963;28;20026;-74
2023/05/14 11:11:07;;;;;;;6.80;5.53;;;12.70;99.50;;;;;;4978371;28;20027;-74
2023/05/14 11:13:33;;;;;;;6.57;4.93;;;12.60;99.10;;;;;;4987218;28;20104;-75
2023/05/14 11:16:01;;;;;;;5.93;4.70;;;12.60;99.40;;;;;;5016274;28;20037;-75
2023/05/14 11:18:35;;;;;;;4.38;3.83;;;12.50;99.60;;;;;;5017236;28;20030;-75
2023/05/14 11:21:01;;;;;;;4.43;4.03;;;12.50;99.80;;;;;;5016792;28;20322;-75
2023/05/14 11:23:27;;;;;;;5.25;4.70;;;12.60;99.70;;;;;;5016582;28;20073;-75
2023/05/14 11:25:55;;;;;;;4.28;3.88;;;12.60;99.50;;;;;;5017370;28;20026;-75
2023/05/14 11:28:25;;;;;;;4.53;4.05;;;12.60;99.50;;;;;;4997466;28;20026;-75
2023/05/14 11:30:51;;;;;;;4.82;4.40;;;12.60;99.30;;;;;;4998992;28;20037;-75
2023/05/14 11:33:21;;;;;;;3.80;3.30;;;12.80;99.20;;;;;;5008537;28;20056;-75
2023/05/14 11:35:47;;;;;;;4.85;4.28;;;13.10;99.10;;;;;;5016870;28;20447;-76
2023/05/14 11:38:16;;;;;;;4.22;3.75;;;13.30;98.10;;;;;;5017118;28;20026;-76
2023/05/14 11:40:51;;;;;;;4.20;3.80;;;13.60;97.80;;;;;;5017608;28;20025;-75
2023/05/14 11:43:16;;;;;;;3.90;3.50;;;13.80;96.70;;;;;;5007707;28;20030;-75
2023/05/14 11:45:42;;;;;;;3.60;3.30;;;14.00;96.20;;;;;;4995799;28;20599;-75
2023/05/14 11:48:13;;;;;;;3.63;3.00;;;14.30;95.50;;;;;;4998869;28;20040;-74
2023/05/14 11:50:40;;;;;;;3.20;2.97;;;14.40;94.70;;;;;;4997413;28;20033;-75
2023/05/14 11:53:05;;;;;;;2.53;2.33;;;14.60;94.20;;;;;;4996823;28;20061;-75
2023/05/14 11:55:35;;;;;;;2.97;2.67;;;14.90;93.80;;;;;;4996641;28;20031;-75
2023/05/14 11:58:00;;;;;;;3.20;2.90;;;15.40;93.00;;;;;;4996509;28;20165;-75
2023/05/14 12:00:26;;;;;;;3.67;3.38;;;15.90;91.60;;;;;;4982783;28;20034;-75
2023/05/14 12:02:53;;;;;;;4.95;4.45;;;16.00;89.60;;;;;;4978812;28;20035;-76
2023/05/14 12:05:19;;;;;;;3.95;3.55;;;15.70;86.20;;;;;;4996284;28;20026;-76
2023/05/14 12:07:45;;;;;;;3.28;2.33;;;15.50;88.20;;;;;;4992649;28;20033;-75
2023/05/14 12:10:12;;;;;;;3.90;3.47;;;15.70;90.20;;;;;;4996409;28;20046;-75
2023/05/14 12:12:38;;;;;;;3.10;2.80;;;16.00;87.20;;;;;;4996497;28;20034;-75
2023/05/14 12:15:11;;;;;;;2.75;2.55;;;16.20;87.10;;;;;;4994832;28;20022;-75
2023/05/14 12:17:38;;;;;;;3.35;3.05;;;16.30;85.50;;;;;;4994996;28;20061;-76
2023/05/14 12:20:07;;;;;;;3.20;2.92;;;16.30;84.70;;;;;;4996393;28;20022;-76
2023/05/14 12:22:33;;;;;;;2.28;2.10;;;16.20;84.70;;;;;;4995384;28;20054;-76
2023/05/14 12:24:59;;;;;;;4.63;3.20;;;16.20;85.00;;;;;;4996151;28;20034;-75
2023/05/14 12:27:27;;;;;;;2.83;2.63;;;16.40;83.20;;;;;;4995971;28;20014;-75
2023/05/14 12:30:02;;;;;;;4.03;3.55;;;16.50;82.90;;;;;;4990651;28;20105;-75
2023/05/14 12:32:30;;;;;;;2.85;2.55;;;16.60;80.70;;;;;;4994943;28;20023;-76
2023/05/14 12:34:55;;;;;;;3.50;3.10;;;16.60;80.90;;;;;;4993597;28;20627;-76
2023/05/14 12:37:21;;;;;;;2.63;2.42;;;16.80;79.70;;;;;;4996840;28;20029;-75